sensor_id;sensor_type;location;lat;lon;timestamp;P1;durP1;ratioP1;P2;durP2;ratioP2
31724;SDS011;18306;40.960;14.836;2023-02-07T00:01:29;3.38;;;1.70;;
31724;SDS011;18306;40.960;14.836;2023-02-07T00:03:57;7.60;;;2.20;;
31724;SDS011;18306;40.960;14.836;2023-02-07T00:06:29;2.78;;;1.77;;
31724;SDS011;18306;40.960;14.836;2023-02-07T00:09:00;2.58;;;1.48;;
31724;SDS011;18306;40.960;14.836;2023-02-07T00:11:30;0.82;;;0.82;;
31724;SDS011;18306;40.960;14.836;2023-02-07T00:14:06;5.82;;;1.80;;
31724;SDS011;18306;40.960;14.836;2023-02-07T00:16:36;2.67;;;1.52;;
31724;SDS011;18306;40.960;14.836;2023-02-07T00:19:04;3.20;;;1.58;;
31724;SDS011;18306;40.960;14.836;2023-02-07T00:21:32;3.28;;;0.90;;
31724;SDS011;18306;40.960;14.836;2023-02-07T00:24:01;4.82;;;2.13;;
31724;SDS011;18306;40.960;14.836;2023-02-07T00:26:28;3.55;;;1.63;;
31724;SDS011;18306;40.960;14.836;2023-02-07T00:28:56;6.00;;;1.55;;
31724;SDS011;18306;40.960;14.836;2023-02-07T00:31:25;2.30;;;1.00;;
31724;SDS011;18306;40.960;14.836;2023-02-07T00:33:58;4.55;;;1.27;;
31724;SDS011;18306;40.960;14.836;2023-02-07T00:36:30;2.05;;;1.08;;
31724;SDS011;18306;40.960;14.836;2023-02-07T00:38:59;2.42;;;1.33;;
31724;SDS011;18306;40.960;14.836;2023-02-07T00:41:29;2.22;;;1.38;;
31724;SDS011;18306;40.960;14.836;2023-02-07T00:43:59;1.90;;;0.88;;
31724;SDS011;18306;40.960;14.836;2023-02-07T00:46:28;3.55;;;1.60;;
31724;SDS011;18306;40.960;14.836;2023-02-07T00:48:56;1.17;;;0.65;;
31724;SDS011;18306;40.960;14.836;2023-02-07T00:51:23;2.92;;;1.15;;
31724;SDS011;18306;40.960;14.836;2023-02-07T00:53:52;2.25;;;1.30;;
31724;SDS011;18306;40.960;14.836;2023-02-07T00:56:21;2.97;;;1.75;;
31724;SDS011;18306;40.960;14.836;2023-02-07T00:58:50;8.40;;;1.25;;
31724;SDS011;18306;40.960;14.836;2023-02-07T01:01:18;1.75;;;0.80;;
31724;SDS011;18306;40.960;14.836;2023-02-07T01:03:46;1.23;;;0.95;;
31724;SDS011;18306;40.960;14.836;2023-02-07T01:06:14;1.88;;;1.50;;
31724;SDS011;18306;40.960;14.836;2023-02-07T01:08:41;1.90;;;1.38;;
31724;SDS011;18306;40.960;14.836;2023-02-07T01:11:10;2.58;;;1.02;;
31724;SDS011;18306;40.960;14.836;2023-02-07T01:13:40;4.70;;;1.48;;
31724;SDS011;18306;40.960;14.836;2023-02-07T01:16:21;5.20;;;1.92;;
31724;SDS011;18306;40.960;14.836;2023-02-07T01:18:51;1.73;;;0.98;;
31724;SDS011;18306;40.960;14.836;2023-02-07T01:21:20;4.63;;;1.75;;
31724;SDS011;18306;40.960;14.836;2023-02-07T01:23:49;4.05;;;1.13;;
31724;SDS011;18306;40.960;14.836;2023-02-07T01:26:16;4.18;;;1.88;;
31724;SDS011;18306;40.960;14.836;2023-02-07T01:28:44;2.05;;;1.63;;
31724;SDS011;18306;40.960;14.836;2023-02-07T01:31:11;2.65;;;1.60;;
31724;SDS011;18306;40.960;14.836;2023-02-07T01:33:39;5.85;;;1.60;;
31724;SDS011;18306;40.960;14.836;2023-02-07T01:36:08;1.80;;;1.10;;
31724;SDS011;18306;40.960;14.836;2023-02-07T01:38:37;2.50;;;1.58;;
31724;SDS011;18306;40.960;14.836;2023-02-07T01:41:05;2.83;;;1.48;;
31724;SDS011;18306;40.960;14.836;2023-02-07T01:43:34;3.25;;;1.70;;
31724;SDS011;18306;40.960;14.836;2023-02-07T01:46:19;2.58;;;1.60;;
31724;SDS011;18306;40.960;14.836;2023-02-07T01:48:46;4.57;;;1.25;;
31724;SDS011;18306;40.960;14.836;2023-02-07T01:51:14;2.28;;;1.52;;
31724;SDS011;18306;40.960;14.836;2023-02-07T01:53:43;3.65;;;1.27;;
31724;SDS011;18306;40.960;14.836;2023-02-07T01:56:11;0.70;;;0.70;;
31724;SDS011;18306;40.960;14.836;2023-02-07T01:58:40;1.48;;;0.90;;
31724;SDS011;18306;40.960;14.836;2023-02-07T02:01:09;5.60;;;1.52;;
31724;SDS011;18306;40.960;14.836;2023-02-07T02:03:44;7.82;;;1.50;;
31724;SDS011;18306;40.960;14.836;2023-02-07T02:06:14;5.60;;;1.10;;
31724;SDS011;18306;40.960;14.836;2023-02-07T02:08:44;1.45;;;1.05;;
31724;SDS011;18306;40.960;14.836;2023-02-07T02:11:29;1.42;;;1.02;;
31724;SDS011;18306;40.960;14.836;2023-02-07T02:17:10;2.15;;;1.10;;
31724;SDS011;18306;40.960;14.836;2023-02-07T02:23:19;0.90;;;0.90;;
31724;SDS011;18306;40.960;14.836;2023-02-07T02:26:18;1.13;;;0.75;;
31724;SDS011;18306;40.960;14.836;2023-02-07T02:37:54;5.10;;;1.40;;
31724;SDS011;18306;40.960;14.836;2023-02-07T02:40:52;4.68;;;1.23;;
31724;SDS011;18306;40.960;14.836;2023-02-07T02:43:27;6.50;;;1.38;;
31724;SDS011;18306;40.960;14.836;2023-02-07T02:46:01;5.55;;;1.75;;
31724;SDS011;18306;40.960;14.836;2023-02-07T02:48:33;1.83;;;1.02;;
31724;SDS011;18306;40.960;14.836;2023-02-07T02:51:02;2.78;;;1.10;;
31724;SDS011;18306;40.960;14.836;2023-02-07T02:53:30;5.07;;;1.80;;
31724;SDS011;18306;40.960;14.836;2023-02-07T02:56:08;2.38;;;0.98;;
31724;SDS011;18306;40.960;14.836;2023-02-07T03:10:34;5.07;;;1.15;;
31724;SDS011;18306;40.960;14.836;2023-02-07T03:13:26;4.30;;;1.10;;
31724;SDS011;18306;40.960;14.836;2023-02-07T03:18:39;2.03;;;1.13;;
31724;SDS011;18306;40.960;14.836;2023-02-07T03:24:28;4.43;;;1.23;;
31724;SDS011;18306;40.960;14.836;2023-02-07T03:27:00;2.53;;;1.07;;
31724;SDS011;18306;40.960;14.836;2023-02-07T03:29:33;1.40;;;1.02;;
31724;SDS011;18306;40.960;14.836;2023-02-07T03:32:03;2.55;;;1.33;;
31724;SDS011;18306;40.960;14.836;2023-02-07T03:34:40;2.28;;;0.85;;
31724;SDS011;18306;40.960;14.836;2023-02-07T03:37:24;3.35;;;1.42;;
31724;SDS011;18306;40.960;14.836;2023-02-07T03:39:59;1.48;;;1.20;;
31724;SDS011;18306;40.960;14.836;2023-02-07T03:42:32;2.00;;;0.98;;
31724;SDS011;18306;40.960;14.836;2023-02-07T03:45:04;1.05;;;0.95;;
31724;SDS011;18306;40.960;14.836;2023-02-07T03:47:34;2.47;;;1.67;;
31724;SDS011;18306;40.960;14.836;2023-02-07T03:50:02;5.32;;;1.50;;
31724;SDS011;18306;40.960;14.836;2023-02-07T03:52:29;2.95;;;1.50;;
31724;SDS011;18306;40.960;14.836;2023-02-07T03:54:57;2.97;;;1.17;;
31724;SDS011;18306;40.960;14.836;2023-02-07T03:57:24;2.08;;;1.10;;
31724;SDS011;18306;40.960;14.836;2023-02-07T03:59:52;2.83;;;1.58;;
31724;SDS011;18306;40.960;14.836;2023-02-07T04:02:19;1.90;;;1.30;;
31724;SDS011;18306;40.960;14.836;2023-02-07T04:04:46;2.08;;;1.50;;
31724;SDS011;18306;40.960;14.836;2023-02-07T04:07:15;2.65;;;1.60;;
31724;SDS011;18306;40.960;14.836;2023-02-07T04:09:42;2.97;;;1.67;;
31724;SDS011;18306;40.960;14.836;2023-02-07T04:12:10;3.55;;;1.63;;
31724;SDS011;18306;40.960;14.836;2023-02-07T04:14:37;3.03;;;2.15;;
31724;SDS011;18306;40.960;14.836;2023-02-07T04:17:05;3.97;;;1.75;;
31724;SDS011;18306;40.960;14.836;2023-02-07T04:19:32;4.45;;;2.30;;
31724;SDS011;18306;40.960;14.836;2023-02-07T04:22:00;2.85;;;1.58;;
31724;SDS011;18306;40.960;14.836;2023-02-07T04:24:30;3.53;;;1.83;;
31724;SDS011;18306;40.960;14.836;2023-02-07T04:26:58;3.03;;;1.58;;
31724;SDS011;18306;40.960;14.836;2023-02-07T04:29:25;2.42;;;1.63;;
31724;SDS011;18306;40.960;14.836;2023-02-07T04:31:53;8.02;;;1.73;;
31724;SDS011;18306;40.960;14.836;2023-02-07T04:34:20;2.88;;;1.50;;
31724;SDS011;18306;40.960;14.836;2023-02-07T04:36:48;4.50;;;1.58;;
31724;SDS011;18306;40.960;14.836;2023-02-07T04:39:15;5.18;;;1.55;;
31724;SDS011;18306;40.960;14.836;2023-02-07T04:41:45;3.33;;;1.75;;
31724;SDS011;18306;40.960;14.836;2023-02-07T04:44:13;12.00;;;1.75;;
31724;SDS011;18306;40.960;14.836;2023-02-07T04:46:40;3.22;;;1.40;;
31724;SDS011;18306;40.960;14.836;2023-02-07T04:49:08;5.10;;;1.95;;
31724;SDS011;18306;40.960;14.836;2023-02-07T04:51:35;3.13;;;1.70;;
31724;SDS011;18306;40.960;14.836;2023-02-07T04:54:02;6.25;;;2.15;;
31724;SDS011;18306;40.960;14.836;2023-02-07T04:56:30;3.70;;;1.88;;
31724;SDS011;18306;40.960;14.836;2023-02-07T04:58:57;6.70;;;1.35;;
31724;SDS011;18306;40.960;14.836;2023-02-07T05:01:24;6.13;;;2.30;;
31724;SDS011;18306;40.960;14.836;2023-02-07T05:03:52;3.05;;;2.33;;
31724;SDS011;18306;40.960;14.836;2023-02-07T05:06:19;4.40;;;1.55;;
31724;SDS011;18306;40.960;14.836;2023-02-07T05:08:47;2.38;;;1.88;;
31724;SDS011;18306;40.960;14.836;2023-02-07T05:11:14;5.53;;;2.33;;
31724;SDS011;18306;40.960;14.836;2023-02-07T05:13:44;2.13;;;1.50;;
31724;SDS011;18306;40.960;14.836;2023-02-07T05:16:11;8.45;;;2.22;;
31724;SDS011;18306;40.960;14.836;2023-02-07T05:18:38;2.95;;;1.65;;
31724;SDS011;18306;40.960;14.836;2023-02-07T05:21:06;2.53;;;1.80;;
31724;SDS011;18306;40.960;14.836;2023-02-07T05:23:35;5.32;;;1.95;;
31724;SDS011;18306;40.960;14.836;2023-02-07T05:26:10;4.15;;;2.22;;
31724;SDS011;18306;40.960;14.836;2023-02-07T05:28:50;4.45;;;2.65;;
31724;SDS011;18306;40.960;14.836;2023-02-07T05:31:28;5.60;;;2.33;;
31724;SDS011;18306;40.960;14.836;2023-02-07T05:34:20;3.90;;;2.15;;
31724;SDS011;18306;40.960;14.836;2023-02-07T05:36:56;4.30;;;2.03;;
31724;SDS011;18306;40.960;14.836;2023-02-07T05:39:24;7.85;;;2.97;;
31724;SDS011;18306;40.960;14.836;2023-02-07T05:41:51;6.75;;;3.28;;
31724;SDS011;18306;40.960;14.836;2023-02-07T05:44:19;14.13;;;3.50;;
31724;SDS011;18306;40.960;14.836;2023-02-07T05:46:46;4.00;;;2.53;;
31724;SDS011;18306;40.960;14.836;2023-02-07T05:49:14;11.15;;;2.92;;
31724;SDS011;18306;40.960;14.836;2023-02-07T05:51:41;7.68;;;2.95;;
31724;SDS011;18306;40.960;14.836;2023-02-07T05:54:09;3.30;;;2.35;;
31724;SDS011;18306;40.960;14.836;2023-02-07T05:56:36;8.82;;;2.85;;
31724;SDS011;18306;40.960;14.836;2023-02-07T05:59:03;3.70;;;2.88;;
31724;SDS011;18306;40.960;14.836;2023-02-07T06:01:31;3.90;;;2.35;;
31724;SDS011;18306;40.960;14.836;2023-02-07T06:03:58;3.85;;;2.03;;
31724;SDS011;18306;40.960;14.836;2023-02-07T06:06:26;2.47;;;2.10;;
31724;SDS011;18306;40.960;14.836;2023-02-07T06:08:53;8.25;;;3.13;;
31724;SDS011;18306;40.960;14.836;2023-02-07T06:11:21;3.80;;;2.58;;
31724;SDS011;18306;40.960;14.836;2023-02-07T06:13:49;2.95;;;2.40;;
31724;SDS011;18306;40.960;14.836;2023-02-07T06:16:17;5.53;;;3.33;;
31724;SDS011;18306;40.960;14.836;2023-02-07T06:18:44;3.45;;;2.15;;
31724;SDS011;18306;40.960;14.836;2023-02-07T06:21:11;7.75;;;3.22;;
31724;SDS011;18306;40.960;14.836;2023-02-07T06:23:39;3.25;;;2.38;;
31724;SDS011;18306;40.960;14.836;2023-02-07T06:26:06;5.75;;;2.70;;
31724;SDS011;18306;40.960;14.836;2023-02-07T06:28:34;4.25;;;3.03;;
31724;SDS011;18306;40.960;14.836;2023-02-07T06:31:05;7.45;;;3.30;;
31724;SDS011;18306;40.960;14.836;2023-02-07T06:33:32;4.22;;;2.67;;
31724;SDS011;18306;40.960;14.836;2023-02-07T06:35:59;3.58;;;2.97;;
31724;SDS011;18306;40.960;14.836;2023-02-07T06:38:27;6.20;;;4.05;;
31724;SDS011;18306;40.960;14.836;2023-02-07T06:40:54;8.13;;;3.55;;
31724;SDS011;18306;40.960;14.836;2023-02-07T06:43:22;6.28;;;3.88;;
31724;SDS011;18306;40.960;14.836;2023-02-07T06:45:49;5.57;;;3.58;;
31724;SDS011;18306;40.960;14.836;2023-02-07T06:48:17;7.32;;;4.05;;
31724;SDS011;18306;40.960;14.836;2023-02-07T06:50:51;9.45;;;3.85;;
31724;SDS011;18306;40.960;14.836;2023-02-07T06:53:24;9.75;;;4.20;;
31724;SDS011;18306;40.960;14.836;2023-02-07T06:55:53;7.80;;;3.72;;
31724;SDS011;18306;40.960;14.836;2023-02-07T06:58:22;5.72;;;3.58;;
31724;SDS011;18306;40.960;14.836;2023-02-07T07:00:50;9.10;;;3.63;;
31724;SDS011;18306;40.960;14.836;2023-02-07T07:03:17;9.18;;;4.18;;
31724;SDS011;18306;40.960;14.836;2023-02-07T07:05:45;11.43;;;4.47;;
31724;SDS011;18306;40.960;14.836;2023-02-07T07:08:13;5.85;;;4.00;;
31724;SDS011;18306;40.960;14.836;2023-02-07T07:10:43;11.13;;;5.55;;
31724;SDS011;18306;40.960;14.836;2023-02-07T07:13:10;8.90;;;5.38;;
31724;SDS011;18306;40.960;14.836;2023-02-07T07:15:38;9.70;;;4.10;;
31724;SDS011;18306;40.960;14.836;2023-02-07T07:18:05;9.13;;;4.63;;
31724;SDS011;18306;40.960;14.836;2023-02-07T07:20:33;6.20;;;3.67;;
31724;SDS011;18306;40.960;14.836;2023-02-07T07:23:01;14.35;;;4.53;;
31724;SDS011;18306;40.960;14.836;2023-02-07T07:25:28;6.72;;;3.67;;
31724;SDS011;18306;40.960;14.836;2023-02-07T07:27:57;11.80;;;4.65;;
31724;SDS011;18306;40.960;14.836;2023-02-07T07:30:26;6.57;;;3.55;;
31724;SDS011;18306;40.960;14.836;2023-02-07T07:32:54;6.45;;;3.85;;
31724;SDS011;18306;40.960;14.836;2023-02-07T07:35:21;13.07;;;4.97;;
31724;SDS011;18306;40.960;14.836;2023-02-07T07:37:48;16.85;;;6.18;;
31724;SDS011;18306;40.960;14.836;2023-02-07T07:40:16;10.70;;;4.78;;
31724;SDS011;18306;40.960;14.836;2023-02-07T07:42:43;6.95;;;3.28;;
31724;SDS011;18306;40.960;14.836;2023-02-07T07:45:23;5.75;;;3.13;;
31724;SDS011;18306;40.960;14.836;2023-02-07T07:47:51;11.23;;;3.95;;
31724;SDS011;18306;40.960;14.836;2023-02-07T07:50:18;5.90;;;3.83;;
31724;SDS011;18306;40.960;14.836;2023-02-07T07:52:46;6.63;;;3.67;;
31724;SDS011;18306;40.960;14.836;2023-02-07T07:55:13;6.15;;;3.55;;
31724;SDS011;18306;40.960;14.836;2023-02-07T07:57:41;6.07;;;3.55;;
31724;SDS011;18306;40.960;14.836;2023-02-07T08:00:08;13.73;;;4.75;;
31724;SDS011;18306;40.960;14.836;2023-02-07T08:02:40;5.63;;;3.80;;
31724;SDS011;18306;40.960;14.836;2023-02-07T08:05:08;12.57;;;5.25;;
31724;SDS011;18306;40.960;14.836;2023-02-07T08:07:38;4.78;;;3.42;;
31724;SDS011;18306;40.960;14.836;2023-02-07T08:10:06;8.70;;;3.50;;
31724;SDS011;18306;40.960;14.836;2023-02-07T08:12:33;8.95;;;3.08;;
31724;SDS011;18306;40.960;14.836;2023-02-07T08:15:01;4.55;;;2.75;;
31724;SDS011;18306;40.960;14.836;2023-02-07T08:17:29;3.92;;;2.85;;
31724;SDS011;18306;40.960;14.836;2023-02-07T08:19:56;4.13;;;2.60;;
31724;SDS011;18306;40.960;14.836;2023-02-07T08:22:24;6.82;;;3.58;;
31724;SDS011;18306;40.960;14.836;2023-02-07T08:24:51;6.72;;;4.07;;
31724;SDS011;18306;40.960;14.836;2023-02-07T08:27:19;6.78;;;2.72;;
31724;SDS011;18306;40.960;14.836;2023-02-07T08:29:46;4.68;;;2.50;;
31724;SDS011;18306;40.960;14.836;2023-02-07T08:32:14;9.02;;;3.00;;
31724;SDS011;18306;40.960;14.836;2023-02-07T08:34:41;4.22;;;2.50;;
31724;SDS011;18306;40.960;14.836;2023-02-07T08:37:10;16.45;;;3.65;;
31724;SDS011;18306;40.960;14.836;2023-02-07T08:39:38;5.65;;;2.58;;
31724;SDS011;18306;40.960;14.836;2023-02-07T08:42:06;4.85;;;2.35;;
31724;SDS011;18306;40.960;14.836;2023-02-07T08:44:34;3.90;;;2.00;;
31724;SDS011;18306;40.960;14.836;2023-02-07T08:47:02;7.28;;;2.20;;
31724;SDS011;18306;40.960;14.836;2023-02-07T08:49:31;4.43;;;1.98;;
31724;SDS011;18306;40.960;14.836;2023-02-07T08:51:59;7.20;;;3.13;;
31724;SDS011;18306;40.960;14.836;2023-02-07T08:54:27;5.57;;;1.77;;
31724;SDS011;18306;40.960;14.836;2023-02-07T08:56:54;2.33;;;2.05;;
31724;SDS011;18306;40.960;14.836;2023-02-07T08:59:22;3.15;;;1.75;;
31724;SDS011;18306;40.960;14.836;2023-02-07T09:01:50;6.00;;;2.25;;
31724;SDS011;18306;40.960;14.836;2023-02-07T09:04:17;4.15;;;2.30;;
31724;SDS011;18306;40.960;14.836;2023-02-07T09:06:45;4.18;;;1.52;;
31724;SDS011;18306;40.960;14.836;2023-02-07T09:09:12;3.20;;;1.98;;
31724;SDS011;18306;40.960;14.836;2023-02-07T09:11:40;5.53;;;1.88;;
31724;SDS011;18306;40.960;14.836;2023-02-07T09:14:08;2.88;;;1.63;;
31724;SDS011;18306;40.960;14.836;2023-02-07T09:16:35;3.92;;;2.10;;
31724;SDS011;18306;40.960;14.836;2023-02-07T09:19:03;4.05;;;2.20;;
31724;SDS011;18306;40.960;14.836;2023-02-07T09:21:30;3.17;;;1.83;;
31724;SDS011;18306;40.960;14.836;2023-02-07T09:23:59;1.60;;;1.10;;
31724;SDS011;18306;40.960;14.836;2023-02-07T09:26:26;2.42;;;1.48;;
31724;SDS011;18306;40.960;14.836;2023-02-07T09:28:55;3.85;;;1.80;;
31724;SDS011;18306;40.960;14.836;2023-02-07T09:31:22;2.97;;;1.50;;
31724;SDS011;18306;40.960;14.836;2023-02-07T09:33:49;5.15;;;2.20;;
31724;SDS011;18306;40.960;14.836;2023-02-07T09:36:22;5.45;;;2.40;;
31724;SDS011;18306;40.960;14.836;2023-02-07T09:44:15;3.45;;;1.45;;
31724;SDS011;18306;40.960;14.836;2023-02-07T09:46:46;4.10;;;1.90;;
31724;SDS011;18306;40.960;14.836;2023-02-07T09:49:32;2.00;;;1.47;;
31724;SDS011;18306;40.960;14.836;2023-02-07T09:52:10;3.03;;;1.73;;
31724;SDS011;18306;40.960;14.836;2023-02-07T09:54:57;7.75;;;2.80;;
31724;SDS011;18306;40.960;14.836;2023-02-07T09:57:31;9.52;;;2.13;;
31724;SDS011;18306;40.960;14.836;2023-02-07T10:00:17;7.30;;;1.67;;
31724;SDS011;18306;40.960;14.836;2023-02-07T10:05:36;2.78;;;1.33;;
31724;SDS011;18306;40.960;14.836;2023-02-07T10:08:12;3.97;;;2.47;;
31724;SDS011;18306;40.960;14.836;2023-02-07T10:14:13;6.65;;;2.15;;
31724;SDS011;18306;40.960;14.836;2023-02-07T10:17:29;3.85;;;2.53;;
31724;SDS011;18306;40.960;14.836;2023-02-07T10:28:35;3.42;;;1.65;;
31724;SDS011;18306;40.960;14.836;2023-02-07T10:31:14;5.97;;;2.60;;
31724;SDS011;18306;40.960;14.836;2023-02-07T10:33:53;3.00;;;1.77;;
31724;SDS011;18306;40.960;14.836;2023-02-07T10:36:34;5.50;;;2.25;;
31724;SDS011;18306;40.960;14.836;2023-02-07T10:39:08;2.17;;;1.50;;
31724;SDS011;18306;40.960;14.836;2023-02-07T10:41:44;1.67;;;1.40;;
31724;SDS011;18306;40.960;14.836;2023-02-07T10:44:12;2.22;;;1.55;;
31724;SDS011;18306;40.960;14.836;2023-02-07T10:46:45;3.45;;;1.88;;
31724;SDS011;18306;40.960;14.836;2023-02-07T10:49:20;7.00;;;1.67;;
31724;SDS011;18306;40.960;14.836;2023-02-07T10:54:50;3.00;;;1.70;;
31724;SDS011;18306;40.960;14.836;2023-02-07T10:57:20;8.23;;;4.43;;
31724;SDS011;18306;40.960;14.836;2023-02-07T10:59:48;3.75;;;1.95;;
31724;SDS011;18306;40.960;14.836;2023-02-07T11:05:04;3.25;;;1.98;;
31724;SDS011;18306;40.960;14.836;2023-02-07T11:07:41;2.28;;;1.40;;
31724;SDS011;18306;40.960;14.836;2023-02-07T11:10:36;4.13;;;2.63;;
31724;SDS011;18306;40.960;14.836;2023-02-07T11:13:11;7.35;;;2.78;;
31724;SDS011;18306;40.960;14.836;2023-02-07T11:15:48;2.45;;;1.55;;
31724;SDS011;18306;40.960;14.836;2023-02-07T11:18:36;3.58;;;1.83;;
31724;SDS011;18306;40.960;14.836;2023-02-07T11:26:51;3.00;;;1.30;;
31724;SDS011;18306;40.960;14.836;2023-02-07T11:29:21;3.25;;;1.55;;
31724;SDS011;18306;40.960;14.836;2023-02-07T11:31:51;1.85;;;0.90;;
31724;SDS011;18306;40.960;14.836;2023-02-07T11:36:51;4.63;;;1.63;;
31724;SDS011;18306;40.960;14.836;2023-02-07T11:39:19;1.50;;;1.40;;
31724;SDS011;18306;40.960;14.836;2023-02-07T11:41:53;1.63;;;1.20;;
31724;SDS011;18306;40.960;14.836;2023-02-07T11:44:26;11.23;;;2.75;;
31724;SDS011;18306;40.960;14.836;2023-02-07T11:46:57;7.18;;;2.10;;
31724;SDS011;18306;40.960;14.836;2023-02-07T11:52:06;3.60;;;1.80;;
31724;SDS011;18306;40.960;14.836;2023-02-07T11:54:35;4.97;;;1.83;;
31724;SDS011;18306;40.960;14.836;2023-02-07T11:57:05;6.60;;;1.88;;
31724;SDS011;18306;40.960;14.836;2023-02-07T11:59:47;15.93;;;6.93;;
31724;SDS011;18306;40.960;14.836;2023-02-07T12:02:24;6.45;;;2.75;;
31724;SDS011;18306;40.960;14.836;2023-02-07T12:04:54;3.55;;;1.88;;
31724;SDS011;18306;40.960;14.836;2023-02-07T12:07:36;3.17;;;1.92;;
31724;SDS011;18306;40.960;14.836;2023-02-07T12:10:18;3.25;;;1.75;;
31724;SDS011;18306;40.960;14.836;2023-02-07T12:21:26;14.80;;;4.22;;
31724;SDS011;18306;40.960;14.836;2023-02-07T12:26:58;3.75;;;2.15;;
31724;SDS011;18306;40.960;14.836;2023-02-07T12:35:27;4.10;;;1.65;;
31724;SDS011;18306;40.960;14.836;2023-02-07T12:41:44;7.57;;;3.28;;
31724;SDS011;18306;40.960;14.836;2023-02-07T12:43:58;4.68;;;3.00;;
31724;SDS011;18306;40.960;14.836;2023-02-07T12:46:44;4.90;;;2.60;;
31724;SDS011;18306;40.960;14.836;2023-02-07T12:58:47;3.65;;;2.13;;
31724;SDS011;18306;40.960;14.836;2023-02-07T13:07:06;8.10;;;2.53;;
31724;SDS011;18306;40.960;14.836;2023-02-07T13:09:46;6.85;;;2.58;;
31724;SDS011;18306;40.960;14.836;2023-02-07T13:12:46;9.27;;;3.33;;
31724;SDS011;18306;40.960;14.836;2023-02-07T13:15:51;5.13;;;2.58;;
31724;SDS011;18306;40.960;14.836;2023-02-07T13:21:27;6.75;;;2.58;;
31724;SDS011;18306;40.960;14.836;2023-02-07T13:24:01;6.22;;;2.22;;
31724;SDS011;18306;40.960;14.836;2023-02-07T13:26:32;6.32;;;2.03;;
31724;SDS011;18306;40.960;14.836;2023-02-07T13:29:03;6.05;;;2.33;;
31724;SDS011;18306;40.960;14.836;2023-02-07T13:34:02;2.15;;;1.52;;
31724;SDS011;18306;40.960;14.836;2023-02-07T13:36:34;7.38;;;2.65;;
31724;SDS011;18306;40.960;14.836;2023-02-07T13:44:50;3.85;;;2.33;;
31724;SDS011;18306;40.960;14.836;2023-02-07T13:55:32;3.88;;;2.75;;
31724;SDS011;18306;40.960;14.836;2023-02-07T13:58:50;4.65;;;1.95;;
31724;SDS011;18306;40.960;14.836;2023-02-07T14:01:20;3.78;;;1.88;;
31724;SDS011;18306;40.960;14.836;2023-02-07T14:04:00;4.55;;;2.13;;
31724;SDS011;18306;40.960;14.836;2023-02-07T14:06:35;3.83;;;2.30;;
31724;SDS011;18306;40.960;14.836;2023-02-07T14:09:34;7.32;;;2.80;;
31724;SDS011;18306;40.960;14.836;2023-02-07T14:17:55;3.95;;;2.20;;
31724;SDS011;18306;40.960;14.836;2023-02-07T14:31:10;2.67;;;1.20;;
31724;SDS011;18306;40.960;14.836;2023-02-07T14:39:21;2.90;;;2.05;;
31724;SDS011;18306;40.960;14.836;2023-02-07T14:41:59;3.70;;;1.73;;
31724;SDS011;18306;40.960;14.836;2023-02-07T14:44:43;4.82;;;1.80;;
31724;SDS011;18306;40.960;14.836;2023-02-07T14:47:22;6.50;;;1.88;;
31724;SDS011;18306;40.960;14.836;2023-02-07T14:49:57;4.32;;;2.17;;
31724;SDS011;18306;40.960;14.836;2023-02-07T14:52:36;3.50;;;1.80;;
31724;SDS011;18306;40.960;14.836;2023-02-07T14:55:16;3.50;;;1.77;;
31724;SDS011;18306;40.960;14.836;2023-02-07T14:58:03;4.35;;;2.17;;
31724;SDS011;18306;40.960;14.836;2023-02-07T15:00:50;3.97;;;1.77;;
31724;SDS011;18306;40.960;14.836;2023-02-07T15:03:25;4.65;;;2.50;;
31724;SDS011;18306;40.960;14.836;2023-02-07T15:05:58;2.67;;;1.75;;
31724;SDS011;18306;40.960;14.836;2023-02-07T15:08:29;3.15;;;1.92;;
31724;SDS011;18306;40.960;14.836;2023-02-07T15:11:01;10.23;;;2.50;;
31724;SDS011;18306;40.960;14.836;2023-02-07T15:13:43;4.25;;;1.80;;
31724;SDS011;18306;40.960;14.836;2023-02-07T15:16:17;2.20;;;1.40;;
31724;SDS011;18306;40.960;14.836;2023-02-07T15:18:51;4.97;;;1.83;;
31724;SDS011;18306;40.960;14.836;2023-02-07T15:21:36;2.70;;;2.05;;
31724;SDS011;18306;40.960;14.836;2023-02-07T15:24:16;3.58;;;2.35;;
31724;SDS011;18306;40.960;14.836;2023-02-07T15:26:52;3.30;;;1.80;;
31724;SDS011;18306;40.960;14.836;2023-02-07T15:29:29;9.57;;;2.95;;
31724;SDS011;18306;40.960;14.836;2023-02-07T15:31:57;2.53;;;1.60;;
31724;SDS011;18306;40.960;14.836;2023-02-07T15:34:26;2.25;;;1.77;;
31724;SDS011;18306;40.960;14.836;2023-02-07T15:36:58;2.95;;;2.00;;
31724;SDS011;18306;40.960;14.836;2023-02-07T15:39:39;2.85;;;1.80;;
31724;SDS011;18306;40.960;14.836;2023-02-07T15:42:06;2.75;;;1.50;;
31724;SDS011;18306;40.960;14.836;2023-02-07T15:44:46;4.25;;;2.03;;
31724;SDS011;18306;40.960;14.836;2023-02-07T15:47:30;3.58;;;1.75;;
31724;SDS011;18306;40.960;14.836;2023-02-07T15:50:06;5.00;;;2.80;;
31724;SDS011;18306;40.960;14.836;2023-02-07T15:52:52;3.25;;;1.95;;
31724;SDS011;18306;40.960;14.836;2023-02-07T15:55:35;4.88;;;2.55;;
31724;SDS011;18306;40.960;14.836;2023-02-07T15:58:32;6.00;;;2.15;;
31724;SDS011;18306;40.960;14.836;2023-02-07T16:01:03;3.72;;;1.85;;
31724;SDS011;18306;40.960;14.836;2023-02-07T16:03:43;5.05;;;2.20;;
31724;SDS011;18306;40.960;14.836;2023-02-07T16:08:47;2.08;;;1.90;;
31724;SDS011;18306;40.960;14.836;2023-02-07T16:16:50;4.57;;;2.53;;
31724;SDS011;18306;40.960;14.836;2023-02-07T16:19:22;4.18;;;2.10;;
31724;SDS011;18306;40.960;14.836;2023-02-07T16:22:01;5.47;;;2.30;;
31724;SDS011;18306;40.960;14.836;2023-02-07T16:24:43;6.90;;;2.20;;
31724;SDS011;18306;40.960;14.836;2023-02-07T16:27:46;12.32;;;2.78;;
31724;SDS011;18306;40.960;14.836;2023-02-07T16:30:18;2.92;;;2.30;;
31724;SDS011;18306;40.960;14.836;2023-02-07T16:32:49;7.43;;;2.72;;
31724;SDS011;18306;40.960;14.836;2023-02-07T16:37:47;5.22;;;2.83;;
31724;SDS011;18306;40.960;14.836;2023-02-07T16:40:15;4.18;;;2.63;;
31724;SDS011;18306;40.960;14.836;2023-02-07T16:42:44;3.38;;;1.92;;
31724;SDS011;18306;40.960;14.836;2023-02-07T16:45:19;11.05;;;5.03;;
31724;SDS011;18306;40.960;14.836;2023-02-07T16:47:51;8.20;;;3.25;;
31724;SDS011;18306;40.960;14.836;2023-02-07T16:50:20;11.90;;;4.03;;
31724;SDS011;18306;40.960;14.836;2023-02-07T16:52:49;9.75;;;2.85;;
31724;SDS011;18306;40.960;14.836;2023-02-07T16:55:18;4.30;;;2.92;;
31724;SDS011;18306;40.960;14.836;2023-02-07T16:57:47;4.72;;;2.42;;
31724;SDS011;18306;40.960;14.836;2023-02-07T17:00:19;6.50;;;3.53;;
31724;SDS011;18306;40.960;14.836;2023-02-07T17:02:49;5.63;;;3.30;;
31724;SDS011;18306;40.960;14.836;2023-02-07T17:05:19;14.60;;;2.97;;
31724;SDS011;18306;40.960;14.836;2023-02-07T17:07:47;6.22;;;3.67;;
31724;SDS011;18306;40.960;14.836;2023-02-07T17:10:20;9.18;;;3.35;;
31724;SDS011;18306;40.960;14.836;2023-02-07T17:12:51;7.53;;;3.53;;
31724;SDS011;18306;40.960;14.836;2023-02-07T17:15:19;9.23;;;4.22;;
31724;SDS011;18306;40.960;14.836;2023-02-07T17:17:47;7.68;;;3.55;;
31724;SDS011;18306;40.960;14.836;2023-02-07T17:20:19;5.82;;;3.28;;
31724;SDS011;18306;40.960;14.836;2023-02-07T17:22:52;6.90;;;3.53;;
31724;SDS011;18306;40.960;14.836;2023-02-07T17:25:21;3.85;;;2.78;;
31724;SDS011;18306;40.960;14.836;2023-02-07T17:27:50;12.05;;;3.50;;
31724;SDS011;18306;40.960;14.836;2023-02-07T17:30:18;6.90;;;3.47;;
31724;SDS011;18306;40.960;14.836;2023-02-07T17:32:56;5.32;;;2.70;;
31724;SDS011;18306;40.960;14.836;2023-02-07T17:35:23;10.27;;;3.55;;
31724;SDS011;18306;40.960;14.836;2023-02-07T17:37:51;5.47;;;3.35;;
31724;SDS011;18306;40.960;14.836;2023-02-07T17:40:26;6.88;;;3.50;;